sensor_id;sensor_type;location;lat;lon;timestamp;P1;durP1;ratioP1;P2;durP2;ratioP2
37341;SDS011;58643;49.052;8.518;2022-08-19T00:02:03;20.17;;;16.20;;
37341;SDS011;58643;49.052;8.518;2022-08-19T00:04:30;19.85;;;15.00;;
37341;SDS011;58643;49.052;8.518;2022-08-19T00:06:58;19.23;;;14.98;;
37341;SDS011;58643;49.052;8.518;2022-08-19T00:09:24;21.38;;;16.42;;
37341;SDS011;58643;49.052;8.518;2022-08-19T00:11:51;25.83;;;16.50;;
37341;SDS011;58643;49.052;8.518;2022-08-19T00:14:20;20.02;;;16.63;;
37341;SDS011;58643;49.052;8.518;2022-08-19T00:16:47;25.73;;;16.00;;
37341;SDS011;58643;49.052;8.518;2022-08-19T00:19:14;24.77;;;16.95;;
37341;SDS011;58643;49.052;8.518;2022-08-19T00:21:40;20.58;;;16.48;;
37341;SDS011;58643;49.052;8.518;2022-08-19T00:24:07;23.67;;;17.08;;
37341;SDS011;58643;49.052;8.518;2022-08-19T00:26:34;20.35;;;16.08;;
37341;SDS011;58643;49.052;8.518;2022-08-19T00:29:00;23.13;;;16.75;;
37341;SDS011;58643;49.052;8.518;2022-08-19T00:31:27;20.33;;;16.02;;
37341;SDS011;58643;49.052;8.518;2022-08-19T00:33:53;24.90;;;17.33;;
37341;SDS011;58643;49.052;8.518;2022-08-19T00:36:19;22.38;;;17.23;;
37341;SDS011;58643;49.052;8.518;2022-08-19T00:38:45;24.45;;;18.35;;
37341;SDS011;58643;49.052;8.518;2022-08-19T00:41:14;24.00;;;16.98;;
37341;SDS011;58643;49.052;8.518;2022-08-19T00:43:59;24.20;;;16.63;;
37341;SDS011;58643;49.052;8.518;2022-08-19T00:46:30;23.90;;;17.42;;
37341;SDS011;58643;49.052;8.518;2022-08-19T00:48:57;24.83;;;17.95;;
37341;SDS011;58643;49.052;8.518;2022-08-19T00:51:25;23.45;;;17.88;;
37341;SDS011;58643;49.052;8.518;2022-08-19T00:53:54;21.10;;;17.85;;
37341;SDS011;58643;49.052;8.518;2022-08-19T00:56:22;22.85;;;17.70;;
37341;SDS011;58643;49.052;8.518;2022-08-19T00:58:48;21.70;;;17.65;;
37341;SDS011;58643;49.052;8.518;2022-08-19T01:01:14;21.75;;;17.50;;
37341;SDS011;58643;49.052;8.518;2022-08-19T01:03:40;24.73;;;19.02;;
37341;SDS011;58643;49.052;8.518;2022-08-19T01:06:06;21.42;;;17.25;;
37341;SDS011;58643;49.052;8.518;2022-08-19T01:08:33;21.92;;;17.63;;
37341;SDS011;58643;49.052;8.518;2022-08-19T01:10:59;24.73;;;17.75;;
37341;SDS011;58643;49.052;8.518;2022-08-19T01:13:27;27.58;;;19.20;;
37341;SDS011;58643;49.052;8.518;2022-08-19T01:15:56;20.92;;;17.00;;
37341;SDS011;58643;49.052;8.518;2022-08-19T01:18:32;28.30;;;18.20;;
37341;SDS011;58643;49.052;8.518;2022-08-19T01:21:07;24.60;;;18.27;;
37341;SDS011;58643;49.052;8.518;2022-08-19T01:23:40;25.45;;;18.35;;
37341;SDS011;58643;49.052;8.518;2022-08-19T01:26:09;28.98;;;18.13;;
37341;SDS011;58643;49.052;8.518;2022-08-19T01:28:41;26.35;;;18.23;;
37341;SDS011;58643;49.052;8.518;2022-08-19T01:31:08;23.83;;;17.92;;
37341;SDS011;58643;49.052;8.518;2022-08-19T01:33:40;24.10;;;18.67;;
37341;SDS011;58643;49.052;8.518;2022-08-19T01:36:07;23.23;;;18.50;;
37341;SDS011;58643;49.052;8.518;2022-08-19T01:38:37;25.48;;;19.63;;
37341;SDS011;58643;49.052;8.518;2022-08-19T01:41:05;23.45;;;18.02;;
37341;SDS011;58643;49.052;8.518;2022-08-19T01:43:31;22.10;;;17.60;;
37341;SDS011;58643;49.052;8.518;2022-08-19T01:45:58;20.83;;;16.77;;
37341;SDS011;58643;49.052;8.518;2022-08-19T01:48:23;22.58;;;17.48;;
37341;SDS011;58643;49.052;8.518;2022-08-19T01:50:49;22.08;;;17.40;;
37341;SDS011;58643;49.052;8.518;2022-08-19T01:53:15;23.95;;;18.00;;
37341;SDS011;58643;49.052;8.518;2022-08-19T01:55:41;25.33;;;17.52;;
37341;SDS011;58643;49.052;8.518;2022-08-19T01:58:28;23.73;;;18.52;;
37341;SDS011;58643;49.052;8.518;2022-08-19T02:01:06;23.00;;;18.77;;
37341;SDS011;58643;49.052;8.518;2022-08-19T02:03:32;28.17;;;17.85;;
37341;SDS011;58643;49.052;8.518;2022-08-19T02:06:00;21.08;;;17.88;;
37341;SDS011;58643;49.052;8.518;2022-08-19T02:08:27;24.13;;;17.50;;
37341;SDS011;58643;49.052;8.518;2022-08-19T02:10:58;22.42;;;17.42;;
37341;SDS011;58643;49.052;8.518;2022-08-19T02:13:24;20.75;;;16.98;;
37341;SDS011;58643;49.052;8.518;2022-08-19T02:15:50;21.63;;;18.45;;
37341;SDS011;58643;49.052;8.518;2022-08-19T02:18:15;19.95;;;17.08;;
37341;SDS011;58643;49.052;8.518;2022-08-19T02:20:41;20.65;;;16.83;;
37341;SDS011;58643;49.052;8.518;2022-08-19T02:23:08;20.35;;;16.85;;
37341;SDS011;58643;49.052;8.518;2022-08-19T02:25:36;23.52;;;17.67;;
37341;SDS011;58643;49.052;8.518;2022-08-19T02:28:02;22.10;;;17.83;;
37341;SDS011;58643;49.052;8.518;2022-08-19T02:30:28;23.88;;;18.42;;
37341;SDS011;58643;49.052;8.518;2022-08-19T02:32:53;19.60;;;17.10;;
37341;SDS011;58643;49.052;8.518;2022-08-19T02:35:19;25.75;;;18.40;;
37341;SDS011;58643;49.052;8.518;2022-08-19T02:37:45;20.98;;;18.00;;
37341;SDS011;58643;49.052;8.518;2022-08-19T02:40:30;23.73;;;17.88;;
37341;SDS011;58643;49.052;8.518;2022-08-19T02:43:00;19.90;;;17.35;;
37341;SDS011;58643;49.052;8.518;2022-08-19T02:45:27;20.60;;;17.23;;
37341;SDS011;58643;49.052;8.518;2022-08-19T02:47:57;23.05;;;18.10;;
37341;SDS011;58643;49.052;8.518;2022-08-19T02:50:22;22.40;;;18.25;;
37341;SDS011;58643;49.052;8.518;2022-08-19T02:52:48;23.85;;;18.02;;
37341;SDS011;58643;49.052;8.518;2022-08-19T02:55:13;27.23;;;18.70;;
37341;SDS011;58643;49.052;8.518;2022-08-19T02:57:39;23.08;;;19.02;;
37341;SDS011;58643;49.052;8.518;2022-08-19T03:00:07;24.88;;;17.85;;
37341;SDS011;58643;49.052;8.518;2022-08-19T03:02:36;24.45;;;18.80;;
37341;SDS011;58643;49.052;8.518;2022-08-19T03:05:02;22.00;;;19.42;;
37341;SDS011;58643;49.052;8.518;2022-08-19T03:07:28;25.67;;;19.38;;
37341;SDS011;58643;49.052;8.518;2022-08-19T03:09:53;21.60;;;18.98;;
37341;SDS011;58643;49.052;8.518;2022-08-19T03:12:19;26.25;;;18.75;;
37341;SDS011;58643;49.052;8.518;2022-08-19T03:14:45;26.98;;;19.13;;
37341;SDS011;58643;49.052;8.518;2022-08-19T03:17:11;29.17;;;19.52;;
37341;SDS011;58643;49.052;8.518;2022-08-19T03:19:37;23.48;;;19.75;;
37341;SDS011;58643;49.052;8.518;2022-08-19T03:22:03;27.45;;;19.17;;
37341;SDS011;58643;49.052;8.518;2022-08-19T03:24:29;24.88;;;19.85;;
37341;SDS011;58643;49.052;8.518;2022-08-19T03:26:55;25.73;;;19.45;;
37341;SDS011;58643;49.052;8.518;2022-08-19T03:29:25;29.92;;;17.75;;
37341;SDS011;58643;49.052;8.518;2022-08-19T03:31:56;27.92;;;20.08;;
37341;SDS011;58643;49.052;8.518;2022-08-19T03:34:29;38.38;;;20.73;;
37341;SDS011;58643;49.052;8.518;2022-08-19T03:36:57;24.53;;;20.87;;
37341;SDS011;58643;49.052;8.518;2022-08-19T03:39:27;26.60;;;21.15;;
37341;SDS011;58643;49.052;8.518;2022-08-19T03:41:54;24.33;;;20.92;;
37341;SDS011;58643;49.052;8.518;2022-08-19T03:44:25;26.38;;;22.40;;
37341;SDS011;58643;49.052;8.518;2022-08-19T03:46:52;36.08;;;22.58;;
37341;SDS011;58643;49.052;8.518;2022-08-19T03:51:47;26.27;;;22.48;;
37341;SDS011;58643;49.052;8.518;2022-08-19T03:54:13;27.77;;;21.55;;
37341;SDS011;58643;49.052;8.518;2022-08-19T03:56:41;26.27;;;23.02;;
37341;SDS011;58643;49.052;8.518;2022-08-19T03:59:10;27.83;;;23.45;;
37341;SDS011;58643;49.052;8.518;2022-08-19T04:01:38;26.75;;;22.38;;
37341;SDS011;58643;49.052;8.518;2022-08-19T04:04:03;28.55;;;23.33;;
37341;SDS011;58643;49.052;8.518;2022-08-19T04:06:30;27.25;;;22.08;;
37341;SDS011;58643;49.052;8.518;2022-08-19T04:08:58;30.20;;;22.77;;
37341;SDS011;58643;49.052;8.518;2022-08-19T04:11:30;30.05;;;23.33;;
37341;SDS011;58643;49.052;8.518;2022-08-19T04:13:58;28.02;;;23.13;;
37341;SDS011;58643;49.052;8.518;2022-08-19T04:16:25;29.52;;;23.58;;
37341;SDS011;58643;49.052;8.518;2022-08-19T04:18:54;30.10;;;23.20;;
37341;SDS011;58643;49.052;8.518;2022-08-19T04:21:26;28.27;;;22.77;;
37341;SDS011;58643;49.052;8.518;2022-08-19T04:23:52;30.45;;;24.15;;
37341;SDS011;58643;49.052;8.518;2022-08-19T04:26:23;30.45;;;23.88;;
37341;SDS011;58643;49.052;8.518;2022-08-19T04:28:53;28.90;;;23.02;;
37341;SDS011;58643;49.052;8.518;2022-08-19T04:31:20;31.05;;;22.30;;
37341;SDS011;58643;49.052;8.518;2022-08-19T04:33:50;25.42;;;22.58;;
37341;SDS011;58643;49.052;8.518;2022-08-19T04:36:19;29.90;;;22.33;;
37341;SDS011;58643;49.052;8.518;2022-08-19T04:38:49;36.33;;;28.92;;
37341;SDS011;58643;49.052;8.518;2022-08-19T04:41:17;28.58;;;24.17;;
37341;SDS011;58643;49.052;8.518;2022-08-19T04:44:01;29.83;;;23.40;;
37341;SDS011;58643;49.052;8.518;2022-08-19T04:46:28;27.85;;;23.20;;
37341;SDS011;58643;49.052;8.518;2022-08-19T04:48:56;29.85;;;23.35;;
37341;SDS011;58643;49.052;8.518;2022-08-19T04:51:22;32.75;;;24.80;;
37341;SDS011;58643;49.052;8.518;2022-08-19T04:53:48;31.63;;;23.13;;
37341;SDS011;58643;49.052;8.518;2022-08-19T04:56:15;30.08;;;22.33;;
37341;SDS011;58643;49.052;8.518;2022-08-19T04:58:42;26.65;;;23.45;;
37341;SDS011;58643;49.052;8.518;2022-08-19T05:01:11;30.75;;;23.23;;
37341;SDS011;58643;49.052;8.518;2022-08-19T05:03:38;26.95;;;22.45;;
37341;SDS011;58643;49.052;8.518;2022-08-19T05:06:08;32.95;;;23.38;;
37341;SDS011;58643;49.052;8.518;2022-08-19T05:08:37;32.42;;;22.60;;
37341;SDS011;58643;49.052;8.518;2022-08-19T05:11:17;29.02;;;22.13;;
37341;SDS011;58643;49.052;8.518;2022-08-19T05:13:46;27.23;;;22.15;;
37341;SDS011;58643;49.052;8.518;2022-08-19T05:16:13;28.73;;;22.23;;
37341;SDS011;58643;49.052;8.518;2022-08-19T05:18:42;32.13;;;20.30;;
37341;SDS011;58643;49.052;8.518;2022-08-19T05:21:27;30.83;;;20.35;;
37341;SDS011;58643;49.052;8.518;2022-08-19T05:24:12;31.75;;;21.60;;
37341;SDS011;58643;49.052;8.518;2022-08-19T05:26:41;27.33;;;21.45;;
37341;SDS011;58643;49.052;8.518;2022-08-19T05:29:08;28.77;;;20.98;;
37341;SDS011;58643;49.052;8.518;2022-08-19T05:31:35;30.85;;;21.67;;
37341;SDS011;58643;49.052;8.518;2022-08-19T05:34:03;26.85;;;20.42;;
37341;SDS011;58643;49.052;8.518;2022-08-19T05:36:35;29.65;;;19.83;;
37341;SDS011;58643;49.052;8.518;2022-08-19T05:39:10;28.65;;;19.98;;
37341;SDS011;58643;49.052;8.518;2022-08-19T05:41:44;27.75;;;20.88;;
37341;SDS011;58643;49.052;8.518;2022-08-19T05:44:11;24.15;;;20.75;;
37341;SDS011;58643;49.052;8.518;2022-08-19T05:46:37;27.25;;;20.83;;
37341;SDS011;58643;49.052;8.518;2022-08-19T05:49:04;25.42;;;20.15;;
37341;SDS011;58643;49.052;8.518;2022-08-19T05:51:31;22.85;;;18.50;;
37341;SDS011;58643;49.052;8.518;2022-08-19T05:53:59;23.33;;;20.52;;
37341;SDS011;58643;49.052;8.518;2022-08-19T05:56:25;24.92;;;21.05;;
37341;SDS011;58643;49.052;8.518;2022-08-19T05:58:51;24.98;;;20.98;;
37341;SDS011;58643;49.052;8.518;2022-08-19T06:01:19;24.55;;;20.73;;
37341;SDS011;58643;49.052;8.518;2022-08-19T06:03:45;22.50;;;19.48;;
37341;SDS011;58643;49.052;8.518;2022-08-19T06:06:13;28.33;;;19.88;;
37341;SDS011;58643;49.052;8.518;2022-08-19T06:08:40;22.08;;;18.92;;
37341;SDS011;58643;49.052;8.518;2022-08-19T06:13:45;24.05;;;18.77;;
37341;SDS011;58643;49.052;8.518;2022-08-19T06:16:16;21.85;;;18.83;;
37341;SDS011;58643;49.052;8.518;2022-08-19T06:18:45;21.45;;;19.15;;
37341;SDS011;58643;49.052;8.518;2022-08-19T06:21:11;21.75;;;18.48;;
37341;SDS011;58643;49.052;8.518;2022-08-19T06:23:38;22.48;;;18.95;;
37341;SDS011;58643;49.052;8.518;2022-08-19T06:26:04;23.63;;;18.25;;
37341;SDS011;58643;49.052;8.518;2022-08-19T06:28:30;25.38;;;18.35;;
37341;SDS011;58643;49.052;8.518;2022-08-19T06:30:55;22.63;;;17.50;;
37341;SDS011;58643;49.052;8.518;2022-08-19T06:33:21;18.35;;;16.35;;
37341;SDS011;58643;49.052;8.518;2022-08-19T06:35:46;20.17;;;17.75;;
37341;SDS011;58643;49.052;8.518;2022-08-19T06:38:12;25.23;;;18.55;;
37341;SDS011;58643;49.052;8.518;2022-08-19T06:40:38;21.38;;;18.27;;
37341;SDS011;58643;49.052;8.518;2022-08-19T06:43:03;20.67;;;17.00;;
37341;SDS011;58643;49.052;8.518;2022-08-19T06:45:29;23.10;;;18.15;;
37341;SDS011;58643;49.052;8.518;2022-08-19T06:47:55;20.65;;;17.20;;
37341;SDS011;58643;49.052;8.518;2022-08-19T06:50:24;22.98;;;17.73;;
37341;SDS011;58643;49.052;8.518;2022-08-19T06:52:49;19.52;;;17.27;;
37341;SDS011;58643;49.052;8.518;2022-08-19T06:55:15;20.92;;;16.48;;
37341;SDS011;58643;49.052;8.518;2022-08-19T06:57:41;22.55;;;17.13;;
37341;SDS011;58643;49.052;8.518;2022-08-19T07:00:08;19.10;;;16.40;;
37341;SDS011;58643;49.052;8.518;2022-08-19T07:02:40;22.70;;;16.70;;
37341;SDS011;58643;49.052;8.518;2022-08-19T07:05:06;21.63;;;16.35;;
37341;SDS011;58643;49.052;8.518;2022-08-19T07:07:32;18.48;;;16.52;;
37341;SDS011;58643;49.052;8.518;2022-08-19T07:09:58;19.15;;;15.15;;
37341;SDS011;58643;49.052;8.518;2022-08-19T07:12:28;17.17;;;15.38;;
37341;SDS011;58643;49.052;8.518;2022-08-19T07:14:59;17.25;;;15.25;;
37341;SDS011;58643;49.052;8.518;2022-08-19T07:17:25;21.83;;;15.80;;
37341;SDS011;58643;49.052;8.518;2022-08-19T07:19:51;19.23;;;15.57;;
37341;SDS011;58643;49.052;8.518;2022-08-19T07:22:17;17.23;;;14.73;;
37341;SDS011;58643;49.052;8.518;2022-08-19T07:24:45;17.20;;;13.95;;
37341;SDS011;58643;49.052;8.518;2022-08-19T07:27:13;16.35;;;13.25;;
37341;SDS011;58643;49.052;8.518;2022-08-19T07:29:39;18.70;;;13.40;;
37341;SDS011;58643;49.052;8.518;2022-08-19T07:32:05;22.85;;;14.20;;
37341;SDS011;58643;49.052;8.518;2022-08-19T07:34:31;18.83;;;13.10;;
37341;SDS011;58643;49.052;8.518;2022-08-19T07:37:02;18.60;;;13.40;;
37341;SDS011;58643;49.052;8.518;2022-08-19T07:39:30;19.38;;;12.23;;
37341;SDS011;58643;49.052;8.518;2022-08-19T07:41:58;24.05;;;12.52;;
37341;SDS011;58643;49.052;8.518;2022-08-19T07:44:26;18.45;;;12.85;;
37341;SDS011;58643;49.052;8.518;2022-08-19T07:46:54;15.82;;;12.02;;
37341;SDS011;58643;49.052;8.518;2022-08-19T07:51:49;14.95;;;11.57;;
37341;SDS011;58643;49.052;8.518;2022-08-19T07:54:24;14.70;;;13.13;;
37341;SDS011;58643;49.052;8.518;2022-08-19T07:56:52;19.40;;;11.43;;
37341;SDS011;58643;49.052;8.518;2022-08-19T07:59:18;16.80;;;12.60;;
37341;SDS011;58643;49.052;8.518;2022-08-19T08:01:45;17.55;;;12.80;;
37341;SDS011;58643;49.052;8.518;2022-08-19T08:04:12;15.15;;;12.05;;
37341;SDS011;58643;49.052;8.518;2022-08-19T08:06:56;14.15;;;11.27;;
37341;SDS011;58643;49.052;8.518;2022-08-19T08:09:41;14.45;;;11.63;;
37341;SDS011;58643;49.052;8.518;2022-08-19T08:14:37;15.23;;;11.40;;
37341;SDS011;58643;49.052;8.518;2022-08-19T08:17:06;21.75;;;11.43;;
37341;SDS011;58643;49.052;8.518;2022-08-19T08:19:33;24.42;;;11.80;;
37341;SDS011;58643;49.052;8.518;2022-08-19T08:22:00;21.50;;;11.30;;
37341;SDS011;58643;49.052;8.518;2022-08-19T08:24:27;14.50;;;10.07;;
37341;SDS011;58643;49.052;8.518;2022-08-19T08:26:56;12.13;;;9.32;;
37341;SDS011;58643;49.052;8.518;2022-08-19T08:29:27;13.80;;;9.03;;
37341;SDS011;58643;49.052;8.518;2022-08-19T08:31:55;12.13;;;9.55;;
37341;SDS011;58643;49.052;8.518;2022-08-19T08:34:21;14.35;;;8.95;;
37341;SDS011;58643;49.052;8.518;2022-08-19T08:36:47;10.50;;;8.60;;
37341;SDS011;58643;49.052;8.518;2022-08-19T08:39:13;14.25;;;8.20;;
37341;SDS011;58643;49.052;8.518;2022-08-19T08:41:49;13.40;;;9.13;;
37341;SDS011;58643;49.052;8.518;2022-08-19T08:47:02;11.95;;;8.45;;
37341;SDS011;58643;49.052;8.518;2022-08-19T08:52:16;10.73;;;7.70;;
37341;SDS011;58643;49.052;8.518;2022-08-19T08:54:50;8.93;;;7.80;;
37341;SDS011;58643;49.052;8.518;2022-08-19T08:57:20;9.00;;;7.03;;
37341;SDS011;58643;49.052;8.518;2022-08-19T09:00:34;10.23;;;7.40;;
37341;SDS011;58643;49.052;8.518;2022-08-19T09:03:06;16.70;;;7.70;;
37341;SDS011;58643;49.052;8.518;2022-08-19T09:05:47;7.85;;;6.60;;
37341;SDS011;58643;49.052;8.518;2022-08-19T09:16:58;11.40;;;7.45;;
37341;SDS011;58643;49.052;8.518;2022-08-19T09:19:24;7.85;;;6.43;;
37341;SDS011;58643;49.052;8.518;2022-08-19T09:21:50;10.52;;;7.95;;
37341;SDS011;58643;49.052;8.518;2022-08-19T09:24:16;8.90;;;6.97;;
37341;SDS011;58643;49.052;8.518;2022-08-19T09:26:41;8.02;;;6.28;;
37341;SDS011;58643;49.052;8.518;2022-08-19T09:29:08;11.20;;;7.22;;
37341;SDS011;58643;49.052;8.518;2022-08-19T09:31:35;11.65;;;7.90;;
37341;SDS011;58643;49.052;8.518;2022-08-19T09:34:01;9.45;;;7.53;;
37341;SDS011;58643;49.052;8.518;2022-08-19T09:36:29;10.80;;;7.90;;
37341;SDS011;58643;49.052;8.518;2022-08-19T09:38:58;9.77;;;7.63;;
37341;SDS011;58643;49.052;8.518;2022-08-19T09:41:25;10.98;;;7.30;;
37341;SDS011;58643;49.052;8.518;2022-08-19T09:43:52;11.55;;;8.00;;
37341;SDS011;58643;49.052;8.518;2022-08-19T09:46:20;11.27;;;7.30;;
37341;SDS011;58643;49.052;8.518;2022-08-19T09:48:46;9.38;;;6.22;;
37341;SDS011;58643;49.052;8.518;2022-08-19T09:51:19;13.68;;;6.85;;
37341;SDS011;58643;49.052;8.518;2022-08-19T09:53:46;7.00;;;5.90;;
37341;SDS011;58643;49.052;8.518;2022-08-19T09:56:15;7.75;;;6.07;;
37341;SDS011;58643;49.052;8.518;2022-08-19T09:58:43;8.40;;;6.10;;
37341;SDS011;58643;49.052;8.518;2022-08-19T10:01:08;8.38;;;5.72;;
37341;SDS011;58643;49.052;8.518;2022-08-19T10:03:35;8.63;;;5.70;;
37341;SDS011;58643;49.052;8.518;2022-08-19T10:06:02;20.35;;;5.60;;
37341;SDS011;58643;49.052;8.518;2022-08-19T10:08:33;13.97;;;5.83;;
37341;SDS011;58643;49.052;8.518;2022-08-19T10:11:00;7.30;;;5.30;;
37341;SDS011;58643;49.052;8.518;2022-08-19T10:13:27;7.47;;;6.75;;
37341;SDS011;58643;49.052;8.518;2022-08-19T10:15:55;10.55;;;6.10;;
37341;SDS011;58643;49.052;8.518;2022-08-19T10:18:27;10.50;;;6.00;;
37341;SDS011;58643;49.052;8.518;2022-08-19T10:21:01;8.98;;;5.05;;
37341;SDS011;58643;49.052;8.518;2022-08-19T10:23:35;8.50;;;4.68;;
37341;SDS011;58643;49.052;8.518;2022-08-19T10:26:04;7.13;;;5.10;;
37341;SDS011;58643;49.052;8.518;2022-08-19T10:28:34;9.88;;;5.40;;
37341;SDS011;58643;49.052;8.518;2022-08-19T10:31:14;5.93;;;5.03;;
37341;SDS011;58643;49.052;8.518;2022-08-19T10:33:51;10.40;;;5.78;;
37341;SDS011;58643;49.052;8.518;2022-08-19T10:36:23;8.07;;;5.30;;
37341;SDS011;58643;49.052;8.518;2022-08-19T10:38:56;9.52;;;5.15;;
37341;SDS011;58643;49.052;8.518;2022-08-19T10:41:25;6.30;;;4.90;;
37341;SDS011;58643;49.052;8.518;2022-08-19T10:46:19;9.77;;;5.25;;
37341;SDS011;58643;49.052;8.518;2022-08-19T10:48:47;6.25;;;5.30;;
37341;SDS011;58643;49.052;8.518;2022-08-19T10:51:12;7.85;;;4.90;;
37341;SDS011;58643;49.052;8.518;2022-08-19T10:53:57;8.05;;;5.65;;
37341;SDS011;58643;49.052;8.518;2022-08-19T10:56:24;6.93;;;4.93;;
37341;SDS011;58643;49.052;8.518;2022-08-19T10:59:09;10.30;;;5.00;;
37341;SDS011;58643;49.052;8.518;2022-08-19T11:01:35;8.65;;;5.10;;
37341;SDS011;58643;49.052;8.518;2022-08-19T11:04:01;9.15;;;5.00;;
37341;SDS011;58643;49.052;8.518;2022-08-19T11:06:29;7.80;;;5.23;;
37341;SDS011;58643;49.052;8.518;2022-08-19T11:08:57;5.63;;;4.55;;
37341;SDS011;58643;49.052;8.518;2022-08-19T11:11:25;8.80;;;5.35;;
37341;SDS011;58643;49.052;8.518;2022-08-19T11:13:51;9.43;;;6.25;;
37341;SDS011;58643;49.052;8.518;2022-08-19T11:16:18;6.07;;;5.30;;
37341;SDS011;58643;49.052;8.518;2022-08-19T11:21:15;6.60;;;5.03;;
37341;SDS011;58643;49.052;8.518;2022-08-19T11:23:44;9.70;;;5.95;;
37341;SDS011;58643;49.052;8.518;2022-08-19T11:26:11;8.27;;;5.60;;
37341;SDS011;58643;49.052;8.518;2022-08-19T11:28:37;8.70;;;5.82;;
37341;SDS011;58643;49.052;8.518;2022-08-19T11:31:04;9.32;;;5.38;;
37341;SDS011;58643;49.052;8.518;2022-08-19T11:33:34;7.03;;;5.35;;
37341;SDS011;58643;49.052;8.518;2022-08-19T11:36:00;8.25;;;4.55;;
37341;SDS011;58643;49.052;8.518;2022-08-19T11:38:26;5.07;;;4.50;;
37341;SDS011;58643;49.052;8.518;2022-08-19T11:40:58;8.00;;;4.50;;
37341;SDS011;58643;49.052;8.518;2022-08-19T11:43:25;6.43;;;5.07;;
37341;SDS011;58643;49.052;8.518;2022-08-19T11:45:52;8.10;;;5.15;;
37341;SDS011;58643;49.052;8.518;2022-08-19T11:48:18;8.20;;;4.63;;
37341;SDS011;58643;49.052;8.518;2022-08-19T11:50:47;6.47;;;4.80;;
37341;SDS011;58643;49.052;8.518;2022-08-19T11:53:18;6.75;;;4.75;;
37341;SDS011;58643;49.052;8.518;2022-08-19T11:55:45;6.25;;;5.22;;
37341;SDS011;58643;49.052;8.518;2022-08-19T11:58:14;8.13;;;4.88;;
37341;SDS011;58643;49.052;8.518;2022-08-19T12:00:41;8.23;;;5.55;;
37341;SDS011;58643;49.052;8.518;2022-08-19T12:03:09;7.33;;;5.13;;
37341;SDS011;58643;49.052;8.518;2022-08-19T12:05:36;12.38;;;4.60;;
37341;SDS011;58643;49.052;8.518;2022-08-19T12:08:02;6.38;;;4.93;;
37341;SDS011;58643;49.052;8.518;2022-08-19T12:10:28;12.73;;;5.32;;
37341;SDS011;58643;49.052;8.518;2022-08-19T12:12:54;6.90;;;4.78;;
37341;SDS011;58643;49.052;8.518;2022-08-19T12:15:19;7.82;;;5.13;;
37341;SDS011;58643;49.052;8.518;2022-08-19T12:17:45;8.30;;;4.78;;
37341;SDS011;58643;49.052;8.518;2022-08-19T12:20:11;9.88;;;5.60;;
37341;SDS011;58643;49.052;8.518;2022-08-19T12:22:38;7.95;;;6.63;;
37341;SDS011;58643;49.052;8.518;2022-08-19T12:25:06;6.63;;;5.63;;
37341;SDS011;58643;49.052;8.518;2022-08-19T12:27:33;9.60;;;5.40;;
37341;SDS011;58643;49.052;8.518;2022-08-19T12:30:00;6.68;;;5.60;;
37341;SDS011;58643;49.052;8.518;2022-08-19T12:32:27;9.27;;;5.70;;
37341;SDS011;58643;49.052;8.518;2022-08-19T12:34:52;6.60;;;5.50;;
37341;SDS011;58643;49.052;8.518;2022-08-19T12:37:19;10.05;;;5.95;;
37341;SDS011;58643;49.052;8.518;2022-08-19T12:39:45;6.05;;;5.35;;
37341;SDS011;58643;49.052;8.518;2022-08-19T12:42:11;7.32;;;5.65;;
37341;SDS011;58643;49.052;8.518;2022-08-19T12:44:38;16.52;;;6.03;;
37341;SDS011;58643;49.052;8.518;2022-08-19T12:47:06;12.23;;;6.15;;
37341;SDS011;58643;49.052;8.518;2022-08-19T12:49:33;7.72;;;5.47;;
37341;SDS011;58643;49.052;8.518;2022-08-19T12:52:01;9.48;;;5.45;;
37341;SDS011;58643;49.052;8.518;2022-08-19T12:54:28;9.82;;;5.90;;
37341;SDS011;58643;49.052;8.518;2022-08-19T12:56:55;15.93;;;6.22;;
37341;SDS011;58643;49.052;8.518;2022-08-19T12:59:24;12.02;;;5.88;;
37341;SDS011;58643;49.052;8.518;2022-08-19T13:01:50;10.45;;;6.55;;
37341;SDS011;58643;49.052;8.518;2022-08-19T13:04:16;9.95;;;5.57;;
37341;SDS011;58643;49.052;8.518;2022-08-19T13:06:42;6.38;;;5.05;;
37341;SDS011;58643;49.052;8.518;2022-08-19T13:09:08;5.40;;;4.60;;
37341;SDS011;58643;49.052;8.518;2022-08-19T13:11:37;5.25;;;4.75;;
37341;SDS011;58643;49.052;8.518;2022-08-19T13:14:04;10.18;;;5.00;;
37341;SDS011;58643;49.052;8.518;2022-08-19T13:16:31;8.35;;;5.63;;
37341;SDS011;58643;49.052;8.518;2022-08-19T13:18:57;5.88;;;5.28;;
37341;SDS011;58643;49.052;8.518;2022-08-19T13:21:24;6.15;;;4.97;;
37341;SDS011;58643;49.052;8.518;2022-08-19T13:23:52;7.00;;;5.85;;
37341;SDS011;58643;49.052;8.518;2022-08-19T13:26:19;6.28;;;5.50;;
37341;SDS011;58643;49.052;8.518;2022-08-19T13:28:44;6.88;;;5.43;;
37341;SDS011;58643;49.052;8.518;2022-08-19T13:31:30;9.43;;;5.68;;
37341;SDS011;58643;49.052;8.518;2022-08-19T13:34:16;11.18;;;6.65;;
37341;SDS011;58643;49.052;8.518;2022-08-19T13:36:44;6.20;;;5.60;;
37341;SDS011;58643;49.052;8.518;2022-08-19T13:39:09;7.18;;;5.32;;
37341;SDS011;58643;49.052;8.518;2022-08-19T13:41:36;8.82;;;5.75;;
37341;SDS011;58643;49.052;8.518;2022-08-19T13:44:03;8.23;;;5.28;;
37341;SDS011;58643;49.052;8.518;2022-08-19T13:46:29;5.93;;;5.32;;
37341;SDS011;58643;49.052;8.518;2022-08-19T13:48:55;6.53;;;5.57;;
37341;SDS011;58643;49.052;8.518;2022-08-19T13:51:22;6.47;;;5.85;;
37341;SDS011;58643;49.052;8.518;2022-08-19T13:53:48;6.97;;;5.55;;
37341;SDS011;58643;49.052;8.518;2022-08-19T13:56:15;5.45;;;4.88;;
37341;SDS011;58643;49.052;8.518;2022-08-19T13:58:42;6.83;;;5.20;;
37341;SDS011;58643;49.052;8.518;2022-08-19T14:01:08;5.55;;;4.70;;
37341;SDS011;58643;49.052;8.518;2022-08-19T14:03:34;7.03;;;4.55;;
37341;SDS011;58643;49.052;8.518;2022-08-19T14:06:01;4.80;;;4.40;;
37341;SDS011;58643;49.052;8.518;2022-08-19T14:08:27;5.40;;;4.13;;
37341;SDS011;58643;49.052;8.518;2022-08-19T14:10:53;5.47;;;3.75;;
37341;SDS011;58643;49.052;8.518;2022-08-19T14:13:20;5.15;;;3.28;;
37341;SDS011;58643;49.052;8.518;2022-08-19T14:15:47;3.92;;;3.30;;
37341;SDS011;58643;49.052;8.518;2022-08-19T14:18:13;5.00;;;3.30;;
37341;SDS011;58643;49.052;8.518;2022-08-19T14:20:39;4.18;;;3.50;;
37341;SDS011;58643;49.052;8.518;2022-08-19T14:23:05;5.50;;;3.17;;
37341;SDS011;58643;49.052;8.518;2022-08-19T14:25:31;5.35;;;3.25;;
37341;SDS011;58643;49.052;8.518;2022-08-19T14:27:57;4.25;;;3.30;;
37341;SDS011;58643;49.052;8.518;2022-08-19T14:30:31;4.07;;;3.30;;
37341;SDS011;58643;49.052;8.518;2022-08-19T14:32:58;5.55;;;3.38;;
37341;SDS011;58643;49.052;8.518;2022-08-19T14:35:27;4.18;;;3.55;;
37341;SDS011;58643;49.052;8.518;2022-08-19T14:37:54;3.60;;;3.30;;
37341;SDS011;58643;49.052;8.518;2022-08-19T14:40:21;6.00;;;3.20;;
37341;SDS011;58643;49.052;8.518;2022-08-19T14:42:52;4.35;;;3.33;;
37341;SDS011;58643;49.052;8.518;2022-08-19T14:45:20;3.55;;;3.15;;
37341;SDS011;58643;49.052;8.518;2022-08-19T14:47:46;4.05;;;2.88;;
37341;SDS011;58643;49.052;8.518;2022-08-19T14:50:12;3.88;;;3.10;;
37341;SDS011;58643;49.052;8.518;2022-08-19T14:52:38;4.60;;;2.95;;
37341;SDS011;58643;49.052;8.518;2022-08-19T14:55:05;4.40;;;3.20;;
37341;SDS011;58643;49.052;8.518;2022-08-19T14:57:31;5.32;;;3.15;;
37341;SDS011;58643;49.052;8.518;2022-08-19T14:59:56;4.55;;;3.00;;
37341;SDS011;58643;49.052;8.518;2022-08-19T15:02:23;3.85;;;3.08;;
37341;SDS011;58643;49.052;8.518;2022-08-19T15:04:49;4.97;;;3.20;;
37341;SDS011;58643;49.052;8.518;2022-08-19T15:07:15;5.10;;;2.80;;